Aérodrome :
LOGIN :

S'inscrire | Disclaimer

   EN    FR    IT 

 










Légende :    VFR   VFR Marginal   IFR   IFR Intensif   IFR Très Intensif
Visi : 
Plafond : 
>= 8 km
>= 3000ft
5 à 8 km
1000 à 3000 ft
1500m à 5 km
500 à 1000 ft
800 à 1500m
200 à 500 ft
< 800m
< 200 ft
Symboles :   Orages  Brouillard  Fortes neiges  Fortes précipitations  Vent > 20 kt
SIGMETs :   Divers  Orages  Givrage  Turbulence  Onde Orograph.  Cendres Volcan.







- Altitude de l'aérodrome : 1046 ft
- Code IATA : NUE


EDDN - Nuremberg

DERNIER METAR :
  • 220550Z 25014KT 210V270 9999 FEW010 BKN015 10/08 Q1011 TEMPO 25015G25KT

METARs EXPIRÉS :
  • 220520Z 25016KT 9999 -RADZ FEW009 BKN013 09/08 Q1011 TEMPO 25015G25KT
  • 220450Z 25015KT 8000 -RADZ FEW008 BKN012 09/08 Q1011
  • 220420Z 24013KT 6000 -RADZ FEW008 BKN012 09/08 Q1012
  • 220350Z 24013KT 7000 -RADZ FEW008 BKN012 10/08 Q1012
  • 220320Z 25013KT 7000 -RADZ FEW008 BKN012 09/08 Q1012

TAF TAF EDDN
Valide du 22 à 06h jusqu'au 23 à 06h UTC


220500Z 2206/2306 25015G25KT 7000 SCT010 BKN015
TEMPO 2206/2306 4000 -RADZ BKN010
PROB30
TEMPO 2206/2208 BKN008
TEMPO 2209/2216 26020G35KT
Pas de NOTAMs connus pour ce terrain.



MET'MAP, la Météo Aéronautique d'un coup d'oeil ! - Copyright ORBIFLY Décembre 2007 - Disclaimer

ORBIFLY MET'MAP TEAM :

Programmation & Développement : Alexandra Zaïnal
Conception & Développement : Baudouin d'Aumeries
Co-Programmation & Développement : Marc-Olivier Méhu
Soutien technique & logistique : Manuel Goepfert

Contact : metmap@orbifly.com




SOURCES & CREDITS :

   NOAA